sensor_id;sensor_type;location;lat;lon;timestamp;pressure;altitude;pressure_sealevel;temperature;humidity
81704;BME280;71117;52.352;4.808;2023-11-21T00:01:15;101158.81;;;8.56;96.73
81704;BME280;71117;52.352;4.808;2023-11-21T00:03:40;101150.16;;;8.60;96.80
81704;BME280;71117;52.352;4.808;2023-11-21T00:06:06;101156.53;;;8.68;96.33
81704;BME280;71117;52.352;4.808;2023-11-21T00:08:35;101158.44;;;8.72;96.40
81704;BME280;71117;52.352;4.808;2023-11-21T00:11:00;101159.47;;;8.78;96.20
81704;BME280;71117;52.352;4.808;2023-11-21T00:13:26;101165.75;;;8.83;96.21
81704;BME280;71117;52.352;4.808;2023-11-21T00:15:51;101166.53;;;8.80;95.77
81704;BME280;71117;52.352;4.808;2023-11-21T00:18:17;101171.00;;;8.81;96.04
81704;BME280;71117;52.352;4.808;2023-11-21T00:20:42;101168.28;;;8.80;95.98
81704;BME280;71117;52.352;4.808;2023-11-21T00:23:07;101171.03;;;8.83;95.93
81704;BME280;71117;52.352;4.808;2023-11-21T00:25:34;101173.72;;;8.86;96.20
81704;BME280;71117;52.352;4.808;2023-11-21T00:27:59;101172.94;;;8.88;95.87
81704;BME280;71117;52.352;4.808;2023-11-21T00:30:27;101173.97;;;8.93;95.41
81704;BME280;71117;52.352;4.808;2023-11-21T00:32:52;101168.56;;;8.89;95.43
81704;BME280;71117;52.352;4.808;2023-11-21T00:35:17;101183.72;;;8.97;95.57
81704;BME280;71117;52.352;4.808;2023-11-21T00:37:42;101174.19;;;9.01;95.60
81704;BME280;71117;52.352;4.808;2023-11-21T00:40:08;101175.22;;;9.06;95.67
81704;BME280;71117;52.352;4.808;2023-11-21T00:42:34;101189.25;;;9.05;95.36
81704;BME280;71117;52.352;4.808;2023-11-21T00:44:59;101180.53;;;9.08;95.57
81704;BME280;71117;52.352;4.808;2023-11-21T00:47:25;101174.53;;;9.13;95.79
81704;BME280;71117;52.352;4.808;2023-11-21T00:49:50;101185.91;;;9.11;95.91
81704;BME280;71117;52.352;4.808;2023-11-21T00:52:15;101173.66;;;9.13;95.90
81704;BME280;71117;52.352;4.808;2023-11-21T00:54:41;101177.88;;;9.08;95.67
81704;BME280;71117;52.352;4.808;2023-11-21T00:57:07;101173.63;;;9.11;96.10
81704;BME280;71117;52.352;4.808;2023-11-21T00:59:33;101176.38;;;9.16;95.34
81704;BME280;71117;52.352;4.808;2023-11-21T01:01:59;101188.59;;;9.14;95.52
81704;BME280;71117;52.352;4.808;2023-11-21T01:04:26;101187.81;;;9.16;95.00
81704;BME280;71117;52.352;4.808;2023-11-21T01:06:52;101195.72;;;9.16;95.56
81704;BME280;71117;52.352;4.808;2023-11-21T01:09:17;101193.06;;;9.16;95.30
81704;BME280;71117;52.352;4.808;2023-11-21T01:11:43;101203.50;;;9.13;95.91
81704;BME280;71117;52.352;4.808;2023-11-21T01:14:09;101197.47;;;9.16;95.48
81704;BME280;71117;52.352;4.808;2023-11-21T01:16:35;101208.78;;;9.13;95.62
81704;BME280;71117;52.352;4.808;2023-11-21T01:19:01;101215.94;;;9.17;96.27
81704;BME280;71117;52.352;4.808;2023-11-21T01:21:30;101229.22;;;9.20;96.17
81704;BME280;71117;52.352;4.808;2023-11-21T01:23:56;101224.84;;;9.21;96.09
81704;BME280;71117;52.352;4.808;2023-11-21T01:26:21;101228.41;;;9.23;95.98
81704;BME280;71117;52.352;4.808;2023-11-21T01:28:47;101220.50;;;9.23;95.55
81704;BME280;71117;52.352;4.808;2023-11-21T01:31:14;101234.56;;;9.23;95.83
81704;BME280;71117;52.352;4.808;2023-11-21T01:33:40;101233.63;;;9.21;96.04
81704;BME280;71117;52.352;4.808;2023-11-21T01:36:06;101232.63;;;9.18;95.71
81704;BME280;71117;52.352;4.808;2023-11-21T01:38:31;101238.00;;;9.21;96.24
81704;BME280;71117;52.352;4.808;2023-11-21T01:40:57;101239.69;;;9.19;96.32
81704;BME280;71117;52.352;4.808;2023-11-21T01:43:22;101238.72;;;9.15;96.16
81704;BME280;71117;52.352;4.808;2023-11-21T01:45:48;101236.25;;;9.21;96.22
81704;BME280;71117;52.352;4.808;2023-11-21T01:48:13;101241.41;;;9.17;96.18
81704;BME280;71117;52.352;4.808;2023-11-21T01:50:39;101249.34;;;9.18;96.28
81704;BME280;71117;52.352;4.808;2023-11-21T01:53:05;101243.31;;;9.22;96.28
81704;BME280;71117;52.352;4.808;2023-11-21T01:55:32;101243.31;;;9.22;96.27
81704;BME280;71117;52.352;4.808;2023-11-21T01:57:59;101255.75;;;9.26;96.10
81704;BME280;71117;52.352;4.808;2023-11-21T02:00:25;101256.50;;;9.22;95.52
81704;BME280;71117;52.352;4.808;2023-11-21T02:02:55;101242.44;;;9.22;96.27
81704;BME280;71117;52.352;4.808;2023-11-21T02:05:21;101249.25;;;9.15;95.84
81704;BME280;71117;52.352;4.808;2023-11-21T02:07:47;101253.38;;;9.07;96.71
81704;BME280;71117;52.352;4.808;2023-11-21T02:10:18;101255.00;;;9.02;96.16
81704;BME280;71117;52.352;4.808;2023-11-21T02:12:48;101244.38;;;8.99;96.17
81704;BME280;71117;52.352;4.808;2023-11-21T02:15:14;101257.53;;;8.99;96.32
81704;BME280;71117;52.352;4.808;2023-11-21T02:17:45;101259.28;;;8.98;96.32
81704;BME280;71117;52.352;4.808;2023-11-21T02:20:13;101260.03;;;8.94;96.35
81704;BME280;71117;52.352;4.808;2023-11-21T02:22:43;101258.19;;;8.92;96.60
81704;BME280;71117;52.352;4.808;2023-11-21T02:25:10;101260.88;;;8.93;96.26
81704;BME280;71117;52.352;4.808;2023-11-21T02:27:36;101265.31;;;8.94;96.47
81704;BME280;71117;52.352;4.808;2023-11-21T02:30:01;101270.59;;;8.96;96.79
81704;BME280;71117;52.352;4.808;2023-11-21T02:32:29;101273.56;;;9.07;96.61
81704;BME280;71117;52.352;4.808;2023-11-21T02:34:56;101270.97;;;9.08;96.43
81704;BME280;71117;52.352;4.808;2023-11-21T02:37:26;101273.78;;;9.14;96.32
81704;BME280;71117;52.352;4.808;2023-11-21T02:39:51;101274.78;;;9.18;96.27
81704;BME280;71117;52.352;4.808;2023-11-21T02:42:17;101273.22;;;9.24;95.85
81704;BME280;71117;52.352;4.808;2023-11-21T02:44:42;101267.06;;;9.24;95.91
81704;BME280;71117;52.352;4.808;2023-11-21T02:47:07;101276.88;;;9.30;96.28
81704;BME280;71117;52.352;4.808;2023-11-21T02:49:34;101274.25;;;9.30;95.85
81704;BME280;71117;52.352;4.808;2023-11-21T02:52:01;101276.09;;;9.32;95.77
81704;BME280;71117;52.352;4.808;2023-11-21T02:54:26;101276.22;;;9.37;95.59
81704;BME280;71117;52.352;4.808;2023-11-21T02:56:52;101276.34;;;9.41;95.71
81704;BME280;71117;52.352;4.808;2023-11-21T02:59:18;101280.84;;;9.44;95.68
81704;BME280;71117;52.352;4.808;2023-11-21T03:01:45;101270.31;;;9.44;95.72
81704;BME280;71117;52.352;4.808;2023-11-21T03:04:10;101280.13;;;9.49;96.12
81704;BME280;71117;52.352;4.808;2023-11-21T03:06:36;101277.41;;;9.48;95.44
81704;BME280;71117;52.352;4.808;2023-11-21T03:09:01;101279.28;;;9.50;95.44
81704;BME280;71117;52.352;4.808;2023-11-21T03:11:26;101284.59;;;9.53;95.27
81704;BME280;71117;52.352;4.808;2023-11-21T03:13:52;101285.59;;;9.57;95.14
81704;BME280;71117;52.352;4.808;2023-11-21T03:16:18;101285.75;;;9.62;95.41
81704;BME280;71117;52.352;4.808;2023-11-21T03:18:44;101296.34;;;9.65;95.53
81704;BME280;71117;52.352;4.808;2023-11-21T03:21:09;101284.09;;;9.65;95.80
81704;BME280;71117;52.352;4.808;2023-11-21T03:23:35;101293.00;;;9.70;95.86
81704;BME280;71117;52.352;4.808;2023-11-21T03:26:01;101299.41;;;9.78;95.32
81704;BME280;71117;52.352;4.808;2023-11-21T03:28:27;101302.94;;;9.79;95.59
81704;BME280;71117;52.352;4.808;2023-11-21T03:30:53;101302.09;;;9.81;95.37
81704;BME280;71117;52.352;4.808;2023-11-21T03:33:18;101320.50;;;9.78;95.32
81704;BME280;71117;52.352;4.808;2023-11-21T03:35:44;101318.84;;;9.82;95.63
81704;BME280;71117;52.352;4.808;2023-11-21T03:38:09;101324.03;;;9.79;95.47
81704;BME280;71117;52.352;4.808;2023-11-21T03:40:35;101318.00;;;9.83;96.10
81704;BME280;71117;52.352;4.808;2023-11-21T03:43:00;101308.50;;;9.90;96.13
81704;BME280;71117;52.352;4.808;2023-11-21T03:45:26;101315.69;;;9.95;96.14
81704;BME280;71117;52.352;4.808;2023-11-21T03:47:51;101324.38;;;9.91;96.26
81704;BME280;71117;52.352;4.808;2023-11-21T03:50:16;101313.75;;;9.88;96.80
81704;BME280;71117;52.352;4.808;2023-11-21T03:52:42;101316.56;;;9.94;96.26
81704;BME280;71117;52.352;4.808;2023-11-21T03:55:08;101334.44;;;10.04;96.05
81704;BME280;71117;52.352;4.808;2023-11-21T03:57:33;101333.44;;;10.01;95.70
81704;BME280;71117;52.352;4.808;2023-11-21T03:59:59;101338.72;;;10.01;95.70
81704;BME280;71117;52.352;4.808;2023-11-21T04:02:24;101333.41;;;9.99;95.99
81704;BME280;71117;52.352;4.808;2023-11-21T04:04:51;101344.50;;;9.88;96.19
81704;BME280;71117;52.352;4.808;2023-11-21T04:07:16;101349.78;;;9.88;96.25
81704;BME280;71117;52.352;4.808;2023-11-21T04:09:42;101352.28;;;9.83;96.40
81704;BME280;71117;52.352;4.808;2023-11-21T04:12:08;101354.78;;;9.78;96.40
81704;BME280;71117;52.352;4.808;2023-11-21T04:14:36;101349.34;;;9.72;95.96
81704;BME280;71117;52.352;4.808;2023-11-21T04:17:01;101346.88;;;9.78;96.50
81704;BME280;71117;52.352;4.808;2023-11-21T04:19:28;101361.69;;;9.75;95.76
81704;BME280;71117;52.352;4.808;2023-11-21T04:21:53;101360.59;;;9.67;95.70
81704;BME280;71117;52.352;4.808;2023-11-21T04:24:19;101365.56;;;9.56;95.53
81704;BME280;71117;52.352;4.808;2023-11-21T04:26:44;101366.06;;;9.44;95.20
81704;BME280;71117;52.352;4.808;2023-11-21T04:29:10;101376.69;;;9.47;95.53
81704;BME280;71117;52.352;4.808;2023-11-21T04:31:35;101376.88;;;9.53;95.84
81704;BME280;71117;52.352;4.808;2023-11-21T04:34:01;101384.03;;;9.58;95.87
81704;BME280;71117;52.352;4.808;2023-11-21T04:36:26;101382.28;;;9.58;96.12
81704;BME280;71117;52.352;4.808;2023-11-21T04:38:52;101372.81;;;9.65;95.92
81704;BME280;71117;52.352;4.808;2023-11-21T04:41:17;101379.91;;;9.66;95.85
81704;BME280;71117;52.352;4.808;2023-11-21T04:43:43;101386.25;;;9.72;95.65
81704;BME280;71117;52.352;4.808;2023-11-21T04:46:08;101376.47;;;9.68;96.21
81704;BME280;71117;52.352;4.808;2023-11-21T04:48:34;101393.28;;;9.72;96.10
81704;BME280;71117;52.352;4.808;2023-11-21T04:50:59;101397.72;;;9.74;96.41
81704;BME280;71117;52.352;4.808;2023-11-21T04:53:24;101400.34;;;9.73;96.55
81704;BME280;71117;52.352;4.808;2023-11-21T04:55:50;101401.38;;;9.78;96.82
81704;BME280;71117;52.352;4.808;2023-11-21T04:58:15;101398.94;;;9.86;96.93
81704;BME280;71117;52.352;4.808;2023-11-21T05:00:40;101409.09;;;10.02;96.67
81704;BME280;71117;52.352;4.808;2023-11-21T05:03:06;101409.97;;;10.02;96.65
81704;BME280;71117;52.352;4.808;2023-11-21T05:05:32;101416.41;;;10.11;97.36
81704;BME280;71117;52.352;4.808;2023-11-21T05:07:59;101416.50;;;10.15;96.81
81704;BME280;71117;52.352;4.808;2023-11-21T05:10:24;101412.16;;;10.16;96.35
81704;BME280;71117;52.352;4.808;2023-11-21T05:12:49;101417.47;;;10.17;96.74
81704;BME280;71117;52.352;4.808;2023-11-21T05:15:16;101421.13;;;10.22;96.56
81704;BME280;71117;52.352;4.808;2023-11-21T05:17:43;101428.38;;;10.29;97.07
81704;BME280;71117;52.352;4.808;2023-11-21T05:20:13;101433.56;;;10.26;96.84
81704;BME280;71117;52.352;4.808;2023-11-21T05:22:40;101435.59;;;10.35;96.75
81704;BME280;71117;52.352;4.808;2023-11-21T05:25:06;101433.88;;;10.37;96.01
81704;BME280;71117;52.352;4.808;2023-11-21T05:27:33;101440.13;;;10.41;96.20
81704;BME280;71117;52.352;4.808;2023-11-21T05:29:59;101444.50;;;10.39;96.25
81704;BME280;71117;52.352;4.808;2023-11-21T05:32:25;101443.53;;;10.37;95.91
81704;BME280;71117;52.352;4.808;2023-11-21T05:34:51;101442.69;;;10.38;96.08
81704;BME280;71117;52.352;4.808;2023-11-21T05:37:16;101444.50;;;10.39;96.93
81704;BME280;71117;52.352;4.808;2023-11-21T05:39:42;101457.72;;;10.40;96.43
81704;BME280;71117;52.352;4.808;2023-11-21T05:42:08;101463.78;;;10.38;97.15
81704;BME280;71117;52.352;4.808;2023-11-21T05:44:35;101454.09;;;10.37;96.79
81704;BME280;71117;52.352;4.808;2023-11-21T05:47:01;101463.75;;;10.36;96.74
81704;BME280;71117;52.352;4.808;2023-11-21T05:49:26;101464.75;;;10.40;96.40
81704;BME280;71117;52.352;4.808;2023-11-21T05:51:54;101465.84;;;10.48;95.79
81704;BME280;71117;52.352;4.808;2023-11-21T05:54:19;101475.63;;;10.50;96.33
81704;BME280;71117;52.352;4.808;2023-11-21T05:56:45;101477.47;;;10.54;95.59
81704;BME280;71117;52.352;4.808;2023-11-21T05:59:12;101475.72;;;10.55;95.56
81704;BME280;71117;52.352;4.808;2023-11-21T06:01:37;101491.66;;;10.58;96.16
81704;BME280;71117;52.352;4.808;2023-11-21T06:04:04;101498.53;;;10.51;95.78
81704;BME280;71117;52.352;4.808;2023-11-21T06:06:30;101490.66;;;10.54;95.68
81704;BME280;71117;52.352;4.808;2023-11-21T06:08:56;101494.31;;;10.58;95.55
81704;BME280;71117;52.352;4.808;2023-11-21T06:11:21;101499.63;;;10.59;95.51
81704;BME280;71117;52.352;4.808;2023-11-21T06:13:47;101504.25;;;10.67;95.92
81704;BME280;71117;52.352;4.808;2023-11-21T06:16:13;101497.84;;;10.58;96.01
81704;BME280;71117;52.352;4.808;2023-11-21T06:18:41;101502.53;;;10.69;94.73
81704;BME280;71117;52.352;4.808;2023-11-21T06:21:12;101504.03;;;10.60;95.53
81704;BME280;71117;52.352;4.808;2023-11-21T06:23:38;101514.72;;;10.64;94.84
81704;BME280;71117;52.352;4.808;2023-11-21T06:26:04;101519.06;;;10.62;94.69
81704;BME280;71117;52.352;4.808;2023-11-21T06:28:30;101514.72;;;10.64;95.42
81704;BME280;71117;52.352;4.808;2023-11-21T06:30:56;101516.63;;;10.69;95.71
81704;BME280;71117;52.352;4.808;2023-11-21T06:33:23;101517.63;;;10.73;94.89
81704;BME280;71117;52.352;4.808;2023-11-21T06:35:49;101525.56;;;10.74;94.75
81704;BME280;71117;52.352;4.808;2023-11-21T06:38:16;101526.47;;;10.75;95.54
81704;BME280;71117;52.352;4.808;2023-11-21T06:40:41;101528.94;;;10.69;95.57
81704;BME280;71117;52.352;4.808;2023-11-21T06:43:06;101528.91;;;10.67;95.94
81704;BME280;71117;52.352;4.808;2023-11-21T06:45:33;101539.38;;;10.64;95.89
81704;BME280;71117;52.352;4.808;2023-11-21T06:47:59;101544.69;;;10.66;95.63
81704;BME280;71117;52.352;4.808;2023-11-21T06:50:25;101544.06;;;10.74;95.69
81704;BME280;71117;52.352;4.808;2023-11-21T06:52:53;101555.56;;;10.76;95.57
81704;BME280;71117;52.352;4.808;2023-11-21T06:55:18;101550.97;;;10.69;95.59
81704;BME280;71117;52.352;4.808;2023-11-21T06:57:44;101557.09;;;10.68;95.59
81704;BME280;71117;52.352;4.808;2023-11-21T07:00:10;101560.66;;;10.70;95.37
81704;BME280;71117;52.352;4.808;2023-11-21T07:02:36;101561.44;;;10.66;95.55
81704;BME280;71117;52.352;4.808;2023-11-21T07:05:02;101568.47;;;10.66;95.37
81704;BME280;71117;52.352;4.808;2023-11-21T07:07:27;101562.28;;;10.65;94.86
81704;BME280;71117;52.352;4.808;2023-11-21T07:09:56;101576.34;;;10.64;95.35
81704;BME280;71117;52.352;4.808;2023-11-21T07:12:22;101585.34;;;10.71;95.30
81704;BME280;71117;52.352;4.808;2023-11-21T07:14:51;101582.69;;;10.71;95.23
81704;BME280;71117;52.352;4.808;2023-11-21T07:17:16;101580.78;;;10.65;94.74
81704;BME280;71117;52.352;4.808;2023-11-21T07:19:42;101590.41;;;10.63;94.26
81704;BME280;71117;52.352;4.808;2023-11-21T07:22:07;101594.66;;;10.58;94.26
81704;BME280;71117;52.352;4.808;2023-11-21T07:24:33;101602.88;;;10.67;95.32
81704;BME280;71117;52.352;4.808;2023-11-21T07:26:59;101601.31;;;10.75;94.17
81704;BME280;71117;52.352;4.808;2023-11-21T07:29:24;101612.75;;;10.74;94.72
81704;BME280;71117;52.352;4.808;2023-11-21T07:31:55;101621.34;;;10.67;94.70
81704;BME280;71117;52.352;4.808;2023-11-21T07:34:21;101620.22;;;10.59;95.40
81704;BME280;71117;52.352;4.808;2023-11-21T07:36:46;101624.78;;;10.65;96.41
81704;BME280;71117;52.352;4.808;2023-11-21T07:39:12;101630.78;;;10.59;95.74
81704;BME280;71117;52.352;4.808;2023-11-21T07:41:37;101637.41;;;10.75;96.06
81704;BME280;71117;52.352;4.808;2023-11-21T07:44:10;101633.13;;;10.78;95.58
81704;BME280;71117;52.352;4.808;2023-11-21T07:46:35;101644.72;;;10.83;95.31
81704;BME280;71117;52.352;4.808;2023-11-21T07:49:00;101644.59;;;10.79;95.70
81704;BME280;71117;52.352;4.808;2023-11-21T07:51:26;101652.44;;;10.77;95.34
81704;BME280;71117;52.352;4.808;2023-11-21T07:53:53;101645.63;;;10.84;95.52
81704;BME280;71117;52.352;4.808;2023-11-21T07:56:19;101647.53;;;10.90;95.18
81704;BME280;71117;52.352;4.808;2023-11-21T07:58:45;101645.69;;;10.87;95.46
81704;BME280;71117;52.352;4.808;2023-11-21T08:01:10;101658.22;;;10.94;95.40
81704;BME280;71117;52.352;4.808;2023-11-21T08:03:36;101660.75;;;10.90;96.08
81704;BME280;71117;52.352;4.808;2023-11-21T08:06:02;101662.94;;;11.04;95.34
81704;BME280;71117;52.352;4.808;2023-11-21T08:08:31;101678.78;;;11.04;95.47
81704;BME280;71117;52.352;4.808;2023-11-21T08:10:57;101675.03;;;10.96;95.46
81704;BME280;71117;52.352;4.808;2023-11-21T08:13:23;101682.81;;;10.92;95.85
81704;BME280;71117;52.352;4.808;2023-11-21T08:15:49;101693.56;;;10.98;95.36
81704;BME280;71117;52.352;4.808;2023-11-21T08:18:14;101700.66;;;10.99;95.50
81704;BME280;71117;52.352;4.808;2023-11-21T08:20:41;101697.81;;;10.93;95.67
81704;BME280;71117;52.352;4.808;2023-11-21T08:23:06;101704.16;;;10.98;95.98
81704;BME280;71117;52.352;4.808;2023-11-21T08:25:32;101704.16;;;10.98;95.41
81704;BME280;71117;52.352;4.808;2023-11-21T08:27:59;101713.78;;;10.96;95.81
81704;BME280;71117;52.352;4.808;2023-11-21T08:30:25;101706.00;;;11.00;95.72
81704;BME280;71117;52.352;4.808;2023-11-21T08:32:50;101704.72;;;10.88;96.13
81704;BME280;71117;52.352;4.808;2023-11-21T08:35:17;101714.84;;;11.02;96.29
81704;BME280;71117;52.352;4.808;2023-11-21T08:37:45;101716.34;;;10.94;95.60
81704;BME280;71117;52.352;4.808;2023-11-21T08:40:12;101712.81;;;10.94;94.33
81704;BME280;71117;52.352;4.808;2023-11-21T08:42:41;101718.00;;;10.89;95.03
81704;BME280;71117;52.352;4.808;2023-11-21T08:45:08;101723.22;;;10.88;95.38
81704;BME280;71117;52.352;4.808;2023-11-21T08:47:34;101733.19;;;10.96;95.20
81704;BME280;71117;52.352;4.808;2023-11-21T08:49:59;101737.59;;;10.97;94.63
81704;BME280;71117;52.352;4.808;2023-11-21T08:52:25;101729.47;;;10.90;94.07
81704;BME280;71117;52.352;4.808;2023-11-21T08:54:50;101742.53;;;10.85;94.18
81704;BME280;71117;52.352;4.808;2023-11-21T08:57:22;101743.13;;;10.76;95.37
81704;BME280;71117;52.352;4.808;2023-11-21T08:59:47;101749.38;;;10.78;94.59
81704;BME280;71117;52.352;4.808;2023-11-21T09:02:13;101758.00;;;10.73;94.34
81704;BME280;71117;52.352;4.808;2023-11-21T09:04:38;101765.03;;;10.72;94.49
81704;BME280;71117;52.352;4.808;2023-11-21T09:07:03;101757.03;;;10.71;95.07
81704;BME280;71117;52.352;4.808;2023-11-21T09:09:29;101763.09;;;10.67;94.47
81704;BME280;71117;52.352;4.808;2023-11-21T09:11:55;101777.06;;;10.64;95.75
81704;BME280;71117;52.352;4.808;2023-11-21T09:14:20;101775.63;;;10.74;95.19
81704;BME280;71117;52.352;4.808;2023-11-21T09:16:45;101776.75;;;10.82;95.02
81704;BME280;71117;52.352;4.808;2023-11-21T09:19:12;101789.94;;;10.80;94.23
81704;BME280;71117;52.352;4.808;2023-11-21T09:21:38;101787.66;;;10.93;94.75
81704;BME280;71117;52.352;4.808;2023-11-21T09:24:04;101795.78;;;10.99;94.19
81704;BME280;71117;52.352;4.808;2023-11-21T09:26:29;101808.75;;;10.91;93.85
81704;BME280;71117;52.352;4.808;2023-11-21T09:28:55;101808.63;;;10.86;93.32
81704;BME280;71117;52.352;4.808;2023-11-21T09:31:22;101806.91;;;10.89;94.35
81704;BME280;71117;52.352;4.808;2023-11-21T09:33:49;101816.72;;;10.93;94.40
81704;BME280;71117;52.352;4.808;2023-11-21T09:36:14;101832.06;;;11.04;94.01
81704;BME280;71117;52.352;4.808;2023-11-21T09:38:40;101833.31;;;10.89;93.92
81704;BME280;71117;52.352;4.808;2023-11-21T09:41:13;101835.78;;;10.82;94.13
81704;BME280;71117;52.352;4.808;2023-11-21T09:43:44;101835.56;;;10.76;94.39
81704;BME280;71117;52.352;4.808;2023-11-21T09:46:12;101848.06;;;10.80;94.14
81704;BME280;71117;52.352;4.808;2023-11-21T09:48:42;101847.94;;;10.77;94.60
81704;BME280;71117;52.352;4.808;2023-11-21T09:51:09;101851.16;;;10.67;94.96
81704;BME280;71117;52.352;4.808;2023-11-21T09:53:36;101866.34;;;10.74;94.37
81704;BME280;71117;52.352;4.808;2023-11-21T09:56:03;101863.47;;;10.67;94.58
81704;BME280;71117;52.352;4.808;2023-11-21T09:58:29;101877.56;;;10.67;94.29
81704;BME280;71117;52.352;4.808;2023-11-21T10:00:55;101874.09;;;10.70;94.21
81704;BME280;71117;52.352;4.808;2023-11-21T10:03:22;101889.31;;;10.77;94.05
81704;BME280;71117;52.352;4.808;2023-11-21T10:05:50;101887.03;;;10.88;93.86
81704;BME280;71117;52.352;4.808;2023-11-21T10:08:16;101896.63;;;10.84;93.75
81704;BME280;71117;52.352;4.808;2023-11-21T10:10:46;101890.91;;;10.72;92.70
81704;BME280;71117;52.352;4.808;2023-11-21T10:13:14;101907.72;;;10.74;93.57
81704;BME280;71117;52.352;4.808;2023-11-21T10:15:43;101900.69;;;10.74;92.95
81704;BME280;71117;52.352;4.808;2023-11-21T10:18:14;101915.03;;;10.82;92.90
81704;BME280;71117;52.352;4.808;2023-11-21T10:20:40;101917.31;;;10.72;92.85
81704;BME280;71117;52.352;4.808;2023-11-21T10:23:06;101907.56;;;10.69;92.20
81704;BME280;71117;52.352;4.808;2023-11-21T10:25:36;101919.22;;;10.76;93.11
81704;BME280;71117;52.352;4.808;2023-11-21T10:28:03;101922.75;;;10.76;92.82
81704;BME280;71117;52.352;4.808;2023-11-21T10:30:33;101922.50;;;10.69;93.15
81704;BME280;71117;52.352;4.808;2023-11-21T10:32:59;101934.22;;;10.77;93.02
81704;BME280;71117;52.352;4.808;2023-11-21T10:35:38;101928.72;;;10.71;91.46
81704;BME280;71117;52.352;4.808;2023-11-21T10:38:04;101934.59;;;10.88;91.33
81704;BME280;71117;52.352;4.808;2023-11-21T10:40:29;101935.66;;;10.93;92.27
81704;BME280;71117;52.352;4.808;2023-11-21T10:42:54;101936.00;;;11.03;91.69
81704;BME280;71117;52.352;4.808;2023-11-21T10:45:23;101950.41;;;11.11;91.01
81704;BME280;71117;52.352;4.808;2023-11-21T10:47:51;101943.00;;;11.01;90.32
81704;BME280;71117;52.352;4.808;2023-11-21T10:50:18;101950.44;;;11.13;90.29
81704;BME280;71117;52.352;4.808;2023-11-21T10:52:44;101955.31;;;11.01;89.61
81704;BME280;71117;52.352;4.808;2023-11-21T10:55:18;101959.91;;;11.06;90.38
81704;BME280;71117;52.352;4.808;2023-11-21T10:57:48;101955.53;;;11.07;90.26
81704;BME280;71117;52.352;4.808;2023-11-21T11:00:16;101963.72;;;11.16;89.87
81704;BME280;71117;52.352;4.808;2023-11-21T11:02:45;101954.72;;;11.09;88.86
81704;BME280;71117;52.352;4.808;2023-11-21T11:05:14;101961.28;;;10.95;88.61
81704;BME280;71117;52.352;4.808;2023-11-21T11:07:42;101962.81;;;10.89;88.90
81704;BME280;71117;52.352;4.808;2023-11-21T11:10:09;101969.63;;;10.82;87.97
81704;BME280;71117;52.352;4.808;2023-11-21T11:12:40;101972.38;;;10.85;87.83
81704;BME280;71117;52.352;4.808;2023-11-21T11:15:07;101962.97;;;10.93;87.99
81704;BME280;71117;52.352;4.808;2023-11-21T11:17:36;101975.78;;;11.06;88.53
81704;BME280;71117;52.352;4.808;2023-11-21T11:20:06;101970.06;;;11.21;87.38
81704;BME280;71117;52.352;4.808;2023-11-21T11:22:39;101969.00;;;11.42;87.33
81704;BME280;71117;52.352;4.808;2023-11-21T11:32:59;101980.34;;;11.39;86.59
81704;BME280;71117;52.352;4.808;2023-11-21T11:35:42;101981.97;;;11.34;86.59
81704;BME280;71117;52.352;4.808;2023-11-21T11:38:12;101981.34;;;11.43;86.98
81704;BME280;71117;52.352;4.808;2023-11-21T11:40:40;101979.88;;;11.51;85.50
81704;BME280;71117;52.352;4.808;2023-11-21T11:43:07;101975.06;;;11.39;86.34
81704;BME280;71117;52.352;4.808;2023-11-21T11:45:33;101970.34;;;11.29;84.78
81704;BME280;71117;52.352;4.808;2023-11-21T11:48:00;101979.00;;;11.25;86.49
81704;BME280;71117;52.352;4.808;2023-11-21T11:50:26;101982.16;;;11.40;84.33
81704;BME280;71117;52.352;4.808;2023-11-21T11:52:53;101988.63;;;11.50;84.36
81704;BME280;71117;52.352;4.808;2023-11-21T11:55:24;101983.53;;;11.56;82.77
81704;BME280;71117;52.352;4.808;2023-11-21T11:57:54;101991.00;;;11.68;83.61
81704;BME280;71117;52.352;4.808;2023-11-21T12:02:54;102004.72;;;11.83;81.20
81704;BME280;71117;52.352;4.808;2023-11-21T12:05:20;101986.19;;;11.83;81.90
81704;BME280;71117;52.352;4.808;2023-11-21T12:10:13;102009.69;;;11.74;82.17
81704;BME280;71117;52.352;4.808;2023-11-21T12:12:44;102012.72;;;11.84;81.82
81704;BME280;71117;52.352;4.808;2023-11-21T12:15:11;102009.78;;;11.77;82.42
81704;BME280;71117;52.352;4.808;2023-11-21T12:17:37;102022.94;;;11.74;83.51
81704;BME280;71117;52.352;4.808;2023-11-21T12:20:04;102022.66;;;11.66;82.81
81704;BME280;71117;52.352;4.808;2023-11-21T12:22:31;102027.75;;;11.60;83.42
81704;BME280;71117;52.352;4.808;2023-11-21T12:24:57;102018.84;;;11.56;83.39
81704;BME280;71117;52.352;4.808;2023-11-21T12:27:23;102022.06;;;11.21;83.72
81704;BME280;71117;52.352;4.808;2023-11-21T12:29:48;102028.72;;;11.09;85.22
81704;BME280;71117;52.352;4.808;2023-11-21T12:32:14;102035.38;;;10.98;85.36
81704;BME280;71117;52.352;4.808;2023-11-21T12:34:42;102038.06;;;11.00;85.08
81704;BME280;71117;52.352;4.808;2023-11-21T12:37:08;102035.84;;;10.86;85.86
81704;BME280;71117;52.352;4.808;2023-11-21T12:39:33;102043.81;;;10.88;86.49
81704;BME280;71117;52.352;4.808;2023-11-21T12:42:02;102052.81;;;10.93;86.61
81704;BME280;71117;52.352;4.808;2023-11-21T12:44:28;102056.66;;;10.77;86.83
81704;BME280;71117;52.352;4.808;2023-11-21T12:46:54;102057.63;;;10.79;87.14
81704;BME280;71117;52.352;4.808;2023-11-21T12:49:20;102050.53;;;10.78;86.43
81704;BME280;71117;52.352;4.808;2023-11-21T12:51:47;102068.56;;;10.90;86.71
81704;BME280;71117;52.352;4.808;2023-11-21T12:54:12;102065.81;;;10.87;86.76
81704;BME280;71117;52.352;4.808;2023-11-21T12:56:39;102063.81;;;10.80;86.57
81704;BME280;71117;52.352;4.808;2023-11-21T12:59:04;102071.09;;;10.87;86.79
81704;BME280;71117;52.352;4.808;2023-11-21T13:01:30;102077.41;;;10.91;86.46